Time;durP1;ratioP1;P1;durP2;ratioP2;P2;SDS_P1;SDS_P2;PMS_P1;PMS_P2;Temp;Humidity;BMP_temperature;BMP_pressure;BME280_temperature;BME280_humidity;BME280_pressure;Samples;Min_cycle;Max_cycle;Signal;HPM_P1;HPM_P2
2022/04/11 00:00:52;;;;;;;12.82;4.30;;;;;;;;;;5047540;28;20148;-61
2022/04/11 00:03:19;;;;;;;12.95;4.18;;;;;;;;;;5049029;28;20080;-61
2022/04/11 00:05:45;;;;;;;13.52;4.22;;;;;;;;;;5031875;28;20397;-61
2022/04/11 00:08:11;;;;;;;11.02;4.00;;;;;;;;;;5047959;28;20091;-61
2022/04/11 00:10:37;;;;;;;9.55;3.72;;;;;;;;;;5047874;28;20045;-61
2022/04/11 00:13:07;;;;;;;12.57;4.00;;;;;;;;;;5048819;28;20079;-62
2022/04/11 00:15:34;;;;;;;13.88;3.80;;;;;;;;;;5049332;28;20358;-61
2022/04/11 00:18:03;;;;;;;11.45;3.80;;;;;;;;;;5047065;28;20465;-61
2022/04/11 00:20:29;;;;;;;13.48;3.97;;;;;;;;;;5049191;28;20048;-61
2022/04/11 00:22:55;;;;;;;10.57;4.03;;;;;;;;;;5046601;28;20497;-61
2022/04/11 00:25:22;;;;;;;11.93;4.00;;;;;;;;;;5047217;28;20091;-61
2022/04/11 00:27:49;;;;;;;11.68;4.15;;;;;;;;;;5048711;28;20045;-61
2022/04/11 00:30:16;;;;;;;10.95;4.10;;;;;;;;;;5048135;28;20071;-61
2022/04/11 00:32:45;;;;;;;10.85;3.90;;;;;;;;;;5048462;28;20060;-61
2022/04/11 00:35:11;;;;;;;13.32;4.22;;;;;;;;;;5048215;28;20095;-61
2022/04/11 00:37:39;;;;;;;11.93;3.90;;;;;;;;;;5046900;28;20489;-61
2022/04/11 00:40:06;;;;;;;9.50;3.72;;;;;;;;;;5047689;28;20120;-61
2022/04/11 00:42:33;;;;;;;10.73;3.85;;;;;;;;;;5047961;28;20450;-61
2022/04/11 00:45:03;;;;;;;10.85;4.00;;;;;;;;;;5048224;28;20060;-62
2022/04/11 00:47:30;;;;;;;12.93;3.95;;;;;;;;;;5048658;28;20411;-61
2022/04/11 00:50:06;;;;;;;12.98;4.25;;;;;;;;;;5048150;28;20128;-61
2022/04/11 00:52:33;;;;;;;11.85;4.00;;;;;;;;;;5048822;28;20092;-61
2022/04/11 00:54:59;;;;;;;11.43;3.85;;;;;;;;;;5048629;28;20178;-61
2022/04/11 00:57:25;;;;;;;;;;;;;;;;;;5045001;28;20504;-61
2022/04/11 00:59:53;;;;;;;13.27;4.00;;;;;;;;;;5047511;28;19925;-61
2022/04/11 01:02:19;;;;;;;10.63;3.80;;;;;;;;;;5047511;28;20488;-61
2022/04/11 01:04:45;;;;;;;10.43;3.70;;;;;;;;;;5048429;28;20049;-61
2022/04/11 01:07:11;;;;;;;13.52;4.63;;;;;;;;;;5047697;28;20158;-61
2022/04/11 01:09:37;;;;;;;13.13;4.20;;;;;;;;;;5046107;28;20128;-61
2022/04/11 01:12:03;;;;;;;10.38;4.18;;;;;;;;;;5047142;28;20128;-61
2022/04/11 01:14:29;;;;;;;13.43;4.13;;;;;;;;;;5047833;28;20063;-60
2022/04/11 01:16:59;;;;;;;15.73;4.10;;;;;;;;;;5048304;28;20327;-60
2022/04/11 01:19:27;;;;;;;13.13;4.47;;;;;;;;;;5047136;28;20112;-60
2022/04/11 01:21:53;;;;;;;10.30;3.80;;;;;;;;;;5048031;28;20196;-60
2022/04/11 01:24:23;;;;;;;12.07;4.22;;;;;;;;;;5047655;28;20051;-60
2022/04/11 01:26:50;;;;;;;13.63;3.92;;;;;;;;;;5047398;28;20469;-61
2022/04/11 01:29:17;;;;;;;11.77;4.35;;;;;;;;;;5045313;28;20106;-61
2022/04/11 01:31:43;;;;;;;12.57;4.63;;;;;;;;;;5047541;28;20056;-61
2022/04/11 01:34:09;;;;;;;12.27;4.18;;;;;;;;;;5045718;28;20049;-61
2022/04/11 01:36:35;;;;;;;12.43;4.20;;;;;;;;;;5047996;28;20057;-60
2022/04/11 01:39:01;;;;;;;11.40;4.53;;;;;;;;;;5046148;28;20124;-60
2022/04/11 01:41:27;;;;;;;11.40;4.30;;;;;;;;;;5046698;28;20056;-60
2022/04/11 01:43:53;;;;;;;11.95;4.57;;;;;;;;;;5047816;28;20049;-61
2022/04/11 01:46:20;;;;;;;13.02;4.10;;;;;;;;;;5046855;28;20110;-60
2022/04/11 01:48:46;;;;;;;10.80;4.30;;;;;;;;;;5047202;28;20045;-61
2022/04/11 01:51:13;;;;;;;14.25;4.68;;;;;;;;;;5045791;28;20105;-61
2022/04/11 01:53:39;;;;;;;11.80;4.10;;;;;;;;;;5047583;28;20053;-60
2022/04/11 01:56:06;;;;;;;12.55;4.43;;;;;;;;;;5045178;28;20152;-62
2022/04/11 01:58:32;;;;;;;;;;;;;;;;;;5046828;28;20118;-60
2022/04/11 02:00:59;;;;;;;13.80;4.50;;;;;;;;;;5045585;28;19958;-60
2022/04/11 02:03:26;;;;;;;13.30;4.43;;;;;;;;;;5046627;28;20067;-61
2022/04/11 02:05:52;;;;;;;13.13;4.53;;;;;;;;;;5047377;28;20057;-60
2022/04/11 02:08:19;;;;;;;12.77;4.40;;;;;;;;;;5044699;28;20087;-60
2022/04/11 02:10:46;;;;;;;11.23;4.22;;;;;;;;;;5049421;28;20083;-62
2022/04/11 02:13:12;;;;;;;13.25;4.72;;;;;;;;;;5052223;28;20516;-64
2022/04/11 02:15:38;;;;;;;10.52;4.32;;;;;;;;;;5053197;28;20183;-64
2022/04/11 02:18:04;;;;;;;15.05;4.78;;;;;;;;;;5053282;28;20045;-64
2022/04/11 02:20:31;;;;;;;11.18;4.40;;;;;;;;;;5053041;28;20075;-64
2022/04/11 02:22:58;;;;;;;12.52;4.50;;;;;;;;;;5053166;28;20054;-64
2022/04/11 02:25:26;;;;;;;12.98;4.38;;;;;;;;;;5053592;28;20397;-64
2022/04/11 02:27:57;;;;;;;13.30;4.72;;;;;;;;;;5051883;28;20049;-64
2022/04/11 02:30:24;;;;;;;10.27;4.47;;;;;;;;;;5052271;28;20053;-64
2022/04/11 02:32:50;;;;;;;;;;;;;;;;;;5053454;28;20056;-63
2022/04/11 02:35:16;;;;;;;13.90;4.90;;;;;;;;;;5053222;28;19921;-63
2022/04/11 02:37:42;;;;;;;;;;;;;;;;;;5053905;28;20056;-63
2022/04/11 02:40:09;;;;;;;16.52;5.20;;;;;;;;;;5052914;28;19920;-64
2022/04/11 02:42:35;;;;;;;14.75;5.20;;;;;;;;;;5052835;28;20072;-64
2022/04/11 02:45:02;;;;;;;13.40;5.97;;;;;;;;;;5052466;28;20384;-63
2022/04/11 02:47:28;;;;;;;11.63;5.18;;;;;;;;;;5052611;28;20508;-64
2022/04/11 02:49:54;;;;;;;13.40;5.10;;;;;;;;;;5051687;28;20389;-63
2022/04/11 02:52:21;;;;;;;14.88;5.53;;;;;;;;;;5052779;28;20048;-64
2022/04/11 02:54:47;;;;;;;13.93;6.30;;;;;;;;;;5053139;28;20044;-64
2022/04/11 02:57:13;;;;;;;13.45;6.10;;;;;;;;;;5052644;28;20057;-64
2022/04/11 02:59:39;;;;;;;12.68;5.53;;;;;;;;;;5051569;28;20044;-63
2022/04/11 03:02:05;;;;;;;13.65;5.10;;;;;;;;;;5052765;28;20049;-64
2022/04/11 03:04:31;;;;;;;14.93;5.22;;;;;;;;;;5051691;28;20056;-64
2022/04/11 03:06:58;;;;;;;12.55;5.85;;;;;;;;;;5052827;28;20083;-64
2022/04/11 03:09:24;;;;;;;14.80;5.65;;;;;;;;;;5052601;28;20041;-64
2022/04/11 03:11:50;;;;;;;13.20;5.20;;;;;;;;;;5052725;28;20053;-64
2022/04/11 03:14:16;;;;;;;;;;;;;;;;;;5053135;28;20126;-65
2022/04/11 03:16:42;;;;;;;16.08;5.45;;;;;;;;;;5054158;28;19921;-65
2022/04/11 03:19:09;;;;;;;14.60;5.53;;;;;;;;;;5055610;28;20511;-65
2022/04/11 03:21:35;;;;;;;15.48;5.85;;;;;;;;;;5056051;28;20049;-64
2022/04/11 03:24:01;;;;;;;;;;;;;;;;;;5056809;28;20053;-63
2022/04/11 03:26:27;;;;;;;12.68;5.53;;;;;;;;;;5056282;28;19927;-63
2022/04/11 03:28:53;;;;;;;11.48;4.93;;;;;;;;;;5055886;28;20080;-63
2022/04/11 03:31:19;;;;;;;14.13;5.75;;;;;;;;;;5056689;28;20094;-65
2022/04/11 03:33:45;;;;;;;11.85;5.20;;;;;;;;;;5055955;28;20044;-64
2022/04/11 03:36:12;;;;;;;14.40;5.72;;;;;;;;;;5056125;28;20068;-65
2022/04/11 03:38:38;;;;;;;17.65;5.55;;;;;;;;;;5056589;28;20048;-64
2022/04/11 03:41:04;;;;;;;14.05;4.82;;;;;;;;;;5055617;28;20088;-64
2022/04/11 03:43:30;;;;;;;14.65;5.55;;;;;;;;;;5056453;28;20126;-64
2022/04/11 03:45:56;;;;;;;11.77;5.10;;;;;;;;;;5055806;28;20041;-65
2022/04/11 03:48:24;;;;;;;12.20;5.47;;;;;;;;;;5055554;28;20094;-64
2022/04/11 03:50:50;;;;;;;14.90;4.95;;;;;;;;;;5055556;28;20547;-65
2022/04/11 03:53:16;;;;;;;12.27;5.32;;;;;;;;;;5054513;28;20095;-64
2022/04/11 03:55:42;;;;;;;13.32;4.90;;;;;;;;;;5055480;28;20076;-65
2022/04/11 03:58:09;;;;;;;14.25;5.85;;;;;;;;;;5055824;28;20131;-63
2022/04/11 04:00:35;;;;;;;14.25;5.40;;;;;;;;;;5054353;28;20067;-64
2022/04/11 04:03:05;;;;;;;13.65;5.47;;;;;;;;;;5055431;28;20080;-65
2022/04/11 04:05:31;;;;;;;17.20;5.53;;;;;;;;;;5054769;28;20431;-63
2022/04/11 04:07:57;;;;;;;12.25;5.38;;;;;;;;;;5055255;28;20104;-63
2022/04/11 04:10:26;;;;;;;14.57;5.55;;;;;;;;;;5054273;28;20084;-64
2022/04/11 04:12:59;;;;;;;16.23;5.85;;;;;;;;;;5054089;28;20059;-64
2022/04/11 04:15:25;;;;;;;11.10;5.25;;;;;;;;;;5055834;28;20044;-63
2022/04/11 04:17:55;;;;;;;13.02;5.45;;;;;;;;;;5055643;28;20115;-63
2022/04/11 04:20:21;;;;;;;14.02;5.70;;;;;;;;;;5054614;28;20096;-63
2022/04/11 04:22:48;;;;;;;13.05;5.82;;;;;;;;;;5037875;28;20458;-63
2022/04/11 04:25:14;;;;;;;12.77;5.90;;;;;;;;;;5053779;28;20151;-63
2022/04/11 04:27:41;;;;;;;13.95;5.97;;;;;;;;;;5053650;28;20083;-64
2022/04/11 04:30:07;;;;;;;12.75;5.75;;;;;;;;;;5055344;28;20041;-64
2022/04/11 04:32:33;;;;;;;14.55;6.13;;;;;;;;;;5054786;28;20049;-63
2022/04/11 04:35:00;;;;;;;14.02;6.10;;;;;;;;;;5037110;28;20132;-64
2022/04/11 04:37:26;;;;;;;13.38;6.43;;;;;;;;;;5054671;28;20394;-63
2022/04/11 04:39:52;;;;;;;15.27;6.63;;;;;;;;;;5055081;28;20048;-63
2022/04/11 04:42:22;;;;;;;15.50;6.70;;;;;;;;;;5053901;28;20103;-63
2022/04/11 04:44:48;;;;;;;12.63;6.57;;;;;;;;;;5053178;28;20047;-63
2022/04/11 04:47:15;;;;;;;13.82;6.72;;;;;;;;;;5053750;28;20060;-63
2022/04/11 04:49:42;;;;;;;19.33;7.70;;;;;;;;;;5053503;28;20052;-63
2022/04/11 04:52:08;;;;;;;14.27;6.88;;;;;;;;;;5052249;28;20393;-65
2022/04/11 04:54:34;;;;;;;16.08;7.18;;;;;;;;;;5053123;28;20049;-62
2022/04/11 04:57:01;;;;;;;16.52;6.38;;;;;;;;;;5053103;28;20064;-65
2022/04/11 04:59:27;;;;;;;15.30;6.78;;;;;;;;;;5053010;28;20048;-64
2022/04/11 05:01:53;;;;;;;14.02;6.68;;;;;;;;;;5052659;28;20401;-63
2022/04/11 05:04:19;;;;;;;16.05;6.57;;;;;;;;;;5052694;28;20049;-63
2022/04/11 05:06:45;;;;;;;16.90;6.70;;;;;;;;;;5051328;28;20049;-64
2022/04/11 05:09:11;;;;;;;16.77;6.38;;;;;;;;;;5052466;28;20052;-63
2022/04/11 05:11:37;;;;;;;13.80;6.63;;;;;;;;;;5052464;28;20389;-64
2022/04/11 05:14:03;;;;;;;17.02;6.05;;;;;;;;;;5052370;28;20388;-63
2022/04/11 05:16:29;;;;;;;14.80;6.05;;;;;;;;;;5051373;28;20133;-63
2022/04/11 05:18:56;;;;;;;12.02;5.78;;;;;;;;;;5052762;28;20047;-63
2022/04/11 05:21:22;;;;;;;;;;;;;;;;;;5052716;28;20056;-63
2022/04/11 05:23:48;;;;;;;12.95;5.57;;;;;;;;;;5050967;28;19921;-63
2022/04/11 05:26:14;;;;;;;19.17;6.03;;;;;;;;;;5052837;28;20052;-63
2022/04/11 05:28:40;;;;;;;14.85;5.60;;;;;;;;;;5051377;28;20041;-63
2022/04/11 05:31:06;;;;;;;15.98;5.72;;;;;;;;;;5051963;28;20138;-63
2022/04/11 05:33:32;;;;;;;13.30;5.50;;;;;;;;;;5052324;28;20504;-63
2022/04/11 05:35:58;;;;;;;13.88;5.45;;;;;;;;;;5050930;28;20115;-63
2022/04/11 05:38:24;;;;;;;14.82;5.70;;;;;;;;;;5050511;28;20067;-63
2022/04/11 05:40:52;;;;;;;16.45;5.45;;;;;;;;;;5017960;28;20374;-63
2022/04/11 05:43:19;;;;;;;14.13;5.90;;;;;;;;;;5052141;28;20048;-63
2022/04/11 05:45:45;;;;;;;14.70;5.50;;;;;;;;;;5052778;28;20049;-63
2022/04/11 05:48:11;;;;;;;16.42;6.53;;;;;;;;;;5052286;28;20049;-63
2022/04/11 05:50:37;;;;;;;24.73;10.70;;;;;;;;;;5050870;28;20057;-63
2022/04/11 05:53:03;;;;;;;16.38;7.43;;;;;;;;;;5050656;28;20507;-63
2022/04/11 05:55:30;;;;;;;18.48;6.45;;;;;;;;;;5052706;28;20056;-63
2022/04/11 05:57:56;;;;;;;;;;;;;;;;;;5053256;28;20136;-63
2022/04/11 06:00:23;;;;;;;17.27;5.60;;;;;;;;;;5052023;28;19972;-63
2022/04/11 06:02:50;;;;;;;15.20;5.72;;;;;;;;;;5051730;28;20115;-63
2022/04/11 06:05:16;;;;;;;14.32;5.45;;;;;;;;;;5050755;28;20107;-63
2022/04/11 06:07:42;;;;;;;15.35;5.70;;;;;;;;;;5051632;28;20044;-63
2022/04/11 06:10:08;;;;;;;14.43;5.13;;;;;;;;;;5052067;28;20178;-63
2022/04/11 06:12:34;;;;;;;;;;;;;;;;;;5052065;28;20111;-63
2022/04/11 06:15:01;;;;;;;14.55;5.22;;;;;;;;;;5050234;28;20387;-63
2022/04/11 06:17:27;;;;;;;13.90;5.70;;;;;;;;;;5051592;28;20473;-62
2022/04/11 06:19:57;;;;;;;11.80;5.60;;;;;;;;;;5033834;28;20059;-64
2022/04/11 06:22:24;;;;;;;14.52;6.05;;;;;;;;;;5051093;28;20049;-64
2022/04/11 06:24:50;;;;;;;15.10;5.38;;;;;;;;;;5050655;28;20045;-65
2022/04/11 06:27:21;;;;;;;19.90;5.88;;;;;;;;;;5052220;28;20103;-64
2022/04/11 06:29:47;;;;;;;14.20;5.30;;;;;;;;;;5051503;28;20041;-64
2022/04/11 06:32:26;;;;;;;14.18;5.47;;;;;;;;;;5051544;28;20056;-63
2022/04/11 06:34:52;;;;;;;12.73;5.85;;;;;;;;;;5051435;28;20064;-62
2022/04/11 06:37:18;;;;;;;13.48;5.38;;;;;;;;;;5050314;28;20041;-63
2022/04/11 06:39:46;;;;;;;15.15;5.10;;;;;;;;;;5051309;28;20083;-63
2022/04/11 06:42:13;;;;;;;13.30;5.10;;;;;;;;;;5050196;28;20088;-63
2022/04/11 06:44:39;;;;;;;14.10;4.47;;;;;;;;;;5050238;28;20064;-63
2022/04/11 06:47:05;;;;;;;18.38;5.47;;;;;;;;;;5050689;28;20044;-63
2022/04/11 06:49:31;;;;;;;13.18;5.00;;;;;;;;;;5051747;28;20049;-63
2022/04/11 06:51:57;;;;;;;13.82;5.00;;;;;;;;;;5055427;28;20049;-63
2022/04/11 06:54:23;;;;;;;12.95;5.07;;;;;;;;;;5054019;28;20045;-64
2022/04/11 06:56:49;;;;;;;15.65;5.07;;;;;;;;;;5055547;28;20185;-64
2022/04/11 06:59:15;;;;;;;13.15;4.90;;;;;;;;;;5054380;28;20469;-64
2022/04/11 07:01:42;;;;;;;13.55;4.95;;;;;;;;;;5053837;28;20068;-63
2022/04/11 07:04:09;;;;;;;13.00;4.90;;;;;;;;;;5054862;28;20045;-64
2022/04/11 07:06:35;;;;;;;12.18;4.70;;;;;;;;;;5053882;28;20041;-64
2022/04/11 07:09:01;;;;;;;14.13;5.03;;;;;;;;;;5055486;28;20098;-64
2022/04/11 07:11:30;;;;;;;15.23;4.97;;;;;;;;;;5054973;28;20072;-64
2022/04/11 07:13:57;;;;;;;17.58;5.25;;;;;;;;;;5052185;28;20508;-64
2022/04/11 07:16:24;;;;;;;12.70;5.53;;;;;;;;;;5053572;28;20049;-64
2022/04/11 07:18:50;;;;;;;18.80;5.18;;;;;;;;;;5054677;28;20040;-63
2022/04/11 07:21:16;;;;;;;;;;;;;;;;;;5055086;28;20044;-63
2022/04/11 07:23:43;;;;;;;11.77;4.43;;;;;;;;;;5053365;28;19921;-63
2022/04/11 07:26:12;;;;;;;15.45;4.97;;;;;;;;;;5054821;28;20049;-63
2022/04/11 07:28:39;;;;;;;13.70;5.03;;;;;;;;;;5053319;28;20056;-63
2022/04/11 07:31:05;;;;;;;16.25;5.10;;;;;;;;;;5053185;28;20048;-63
2022/04/11 07:33:33;;;;;;;16.50;5.25;;;;;;;;;;5053610;28;20508;-63
2022/04/11 07:35:59;;;;;;;15.85;5.15;;;;;;;;;;5054217;28;20222;-63
2022/04/11 07:38:25;;;;;;;13.73;4.60;;;;;;;;;;5054973;28;20120;-63
2022/04/11 07:40:51;;;;;;;12.63;4.18;;;;;;;;;;5054862;28;20053;-63
2022/04/11 07:43:17;;;;;;;17.08;4.50;;;;;;;;;;5054830;28;20081;-63
2022/04/11 07:45:45;;;;;;;16.48;4.90;;;;;;;;;;5053392;28;20084;-63
2022/04/11 07:48:11;;;;;;;11.23;3.60;;;;;;;;;;5053076;28;20078;-63
2022/04/11 07:50:37;;;;;;;14.48;3.35;;;;;;;;;;5054101;28;20132;-63
2022/04/11 07:53:03;;;;;;;12.02;3.17;;;;;;;;;;5053445;28;20354;-63
2022/04/11 07:55:29;;;;;;;12.05;3.80;;;;;;;;;;5053443;28;20053;-64
2022/04/11 07:57:56;;;;;;;12.07;4.47;;;;;;;;;;5054075;28;20140;-63
2022/04/11 08:00:22;;;;;;;11.27;3.72;;;;;;;;;;5053965;28;20060;-63
2022/04/11 08:02:48;;;;;;;;;;;;;;;;;;5053450;28;20049;-63
2022/04/11 08:05:19;;;;;;;12.18;3.47;;;;;;;;;;5053814;28;19982;-63
2022/04/11 08:07:45;;;;;;;13.52;3.70;;;;;;;;;;5052762;28;20481;-63
2022/04/11 08:10:14;;;;;;;14.70;3.60;;;;;;;;;;5054318;28;20037;-64
2022/04/11 08:12:40;;;;;;;;;;;;;;;;;;5054370;28;20385;-63
2022/04/11 08:15:06;;;;;;;10.75;3.80;;;;;;;;;;5054076;28;19921;-63
2022/04/11 08:17:33;;;;;;;;;;;;;;;;;;5053055;28;20115;-63
2022/04/11 08:19:59;;;;;;;13.07;4.15;;;;;;;;;;5053551;28;20336;-63
2022/04/11 08:22:25;;;;;;;12.32;4.38;;;;;;;;;;5035777;28;20041;-62
2022/04/11 08:24:51;;;;;;;12.00;4.00;;;;;;;;;;5054277;28;20085;-63
2022/04/11 08:27:17;;;;;;;;;;;;;;;;;;5052253;28;20124;-62
2022/04/11 08:29:44;;;;;;;15.50;5.57;;;;;;;;;;5052057;28;19920;-63
2022/04/11 08:32:12;;;;;;;15.23;5.65;;;;;;;;;;5053311;28;20184;-62
2022/04/11 08:34:39;;;;;;;15.35;5.00;;;;;;;;;;5052309;28;20059;-63
2022/04/11 08:37:08;;;;;;;17.48;5.60;;;;;;;;;;5053819;28;20055;-63
2022/04/11 08:39:34;;;;;;;17.63;5.30;;;;;;;;;;5053179;28;20123;-62
2022/04/11 08:42:03;;;;;;;15.30;4.80;;;;;;;;;;5053028;28;20052;-62
2022/04/11 08:44:29;;;;;;;14.45;4.68;;;;;;;;;;5053202;28;20128;-62
2022/04/11 08:47:00;;;;;;;15.77;4.50;;;;;;;;;;5053028;28;20076;-62
2022/04/11 08:49:28;;;;;;;15.40;4.32;;;;;;;;;;5053538;28;20037;-62
2022/04/11 08:51:54;;;;;;;13.13;3.95;;;;;;;;;;5053511;28;20052;-62
2022/04/11 08:54:20;;;;;;;;;;;;;;;;;;5053321;28;20128;-62
2022/04/11 08:56:48;;;;;;;12.13;3.97;;;;;;;;;;5052811;28;19964;-62
2022/04/11 08:59:14;;;;;;;13.23;4.15;;;;;;;;;;5052548;28;20166;-62
2022/04/11 09:01:40;;;;;;;13.15;3.72;;;;;;;;;;5052627;28;20052;-63
2022/04/11 09:04:09;;;;;;;12.55;4.25;;;;;;;;;;5051510;28;20439;-62
2022/04/11 09:06:35;;;;;;;14.82;4.38;;;;;;;;;;5052669;28;20048;-63
2022/04/11 09:09:02;;;;;;;16.85;4.40;;;;;;;;;;5052904;28;20048;-62
2022/04/11 09:11:39;;;;;;;12.63;4.15;;;;;;;;;;5052071;28;20048;-63
2022/04/11 09:14:06;;;;;;;11.73;3.83;;;;;;;;;;5051230;28;20045;-62
2022/04/11 09:16:51;;;;;;;10.57;3.90;;;;;;;;;;5051964;28;20041;-63
2022/04/11 09:19:21;;;;;;;12.88;3.97;;;;;;;;;;5048321;28;20061;-63
2022/04/11 09:21:47;;;;;;;14.13;4.60;;;;;;;;;;5053009;28;20047;-63
2022/04/11 09:24:15;;;;;;;19.55;4.25;;;;;;;;;;5051205;28;20187;-62
2022/04/11 09:26:41;;;;;;;12.85;4.20;;;;;;;;;;5034618;28;20088;-63
2022/04/11 09:29:07;;;;;;;14.40;4.80;;;;;;;;;;5050529;28;20481;-63
2022/04/11 09:31:33;;;;;;;12.13;4.32;;;;;;;;;;5052647;28;20059;-63
2022/04/11 09:34:19;;;;;;;17.55;5.18;;;;;;;;;;5052191;28;20045;-72
2022/04/11 09:36:52;;;;;;;14.80;4.45;;;;;;;;;;5051087;28;20053;-63
2022/04/11 09:39:22;;;;;;;14.32;4.10;;;;;;;;;;5052383;28;20049;-62
2022/04/11 09:41:49;;;;;;;14.38;4.00;;;;;;;;;;5051979;28;20049;-62
2022/04/11 09:44:21;;;;;;;13.98;3.80;;;;;;;;;;5051857;28;20041;-62
2022/04/11 09:46:48;;;;;;;14.38;4.40;;;;;;;;;;5051608;28;20045;-63
2022/04/11 09:49:16;;;;;;;19.10;4.13;;;;;;;;;;5051398;28;20496;-63
2022/04/11 09:52:01;;;;;;;11.15;3.70;;;;;;;;;;5050634;28;20114;-64
2022/04/11 09:54:29;;;;;;;11.18;3.47;;;;;;;;;;5051932;28;20052;-63
2022/04/11 09:56:55;;;;;;;13.55;4.50;;;;;;;;;;5051529;28;20064;-63
2022/04/11 09:59:21;;;;;;;;;;;;;;;;;;5051044;28;20616;-63
2022/04/11 10:01:48;;;;;;;12.30;3.65;;;;;;;;;;5051997;28;19920;-64
2022/04/11 10:04:15;;;;;;;11.80;3.70;;;;;;;;;;5051119;28;20045;-62
2022/04/11 10:06:41;;;;;;;13.80;3.83;;;;;;;;;;5050690;28;20087;-61
2022/04/11 10:09:07;;;;;;;15.80;4.03;;;;;;;;;;5051617;28;20045;-63
2022/04/11 10:11:34;;;;;;;12.18;3.72;;;;;;;;;;5033835;28;20041;-61
2022/04/11 10:14:01;;;;;;;14.07;4.40;;;;;;;;;;5050466;28;20469;-60
2022/04/11 10:16:27;;;;;;;11.75;3.40;;;;;;;;;;5034346;28;20131;-62
2022/04/11 10:19:00;;;;;;;10.82;2.92;;;;;;;;;;5033706;28;20489;-60
2022/04/11 10:21:27;;;;;;;11.52;3.53;;;;;;;;;;5050744;28;20056;-60
2022/04/11 10:23:53;;;;;;;;;;;;;;;;;;5050764;28;20040;-62
2022/04/11 10:26:19;;;;;;;10.50;3.83;;;;;;;;;;5054289;28;20308;-61
2022/04/11 10:28:46;;;;;;;16.40;4.10;;;;;;;;;;5054422;28;20045;-63
2022/04/11 10:31:16;;;;;;;11.63;3.85;;;;;;;;;;5056086;28;20056;-61
2022/04/11 10:33:45;;;;;;;10.65;4.13;;;;;;;;;;5054896;28;20465;-63
2022/04/11 10:36:30;;;;;;;10.52;3.90;;;;;;;;;;5054215;28;20072;-62
2022/04/11 10:39:15;;;;;;;11.23;4.10;;;;;;;;;;5054481;28;20053;-62
2022/04/11 10:41:56;;;;;;;10.32;3.70;;;;;;;;;;5055462;28;20049;-64
2022/04/11 10:44:35;;;;;;;10.57;4.00;;;;;;;;;;5055218;28;20071;-63
2022/04/11 10:47:14;;;;;;;12.43;4.40;;;;;;;;;;5056281;28;20049;-64
2022/04/11 10:49:49;;;;;;;13.57;4.28;;;;;;;;;;5038163;28;20104;-63
2022/04/11 10:52:33;;;;;;;13.07;3.92;;;;;;;;;;5055094;28;20049;-63
2022/04/11 10:55:19;;;;;;;11.18;3.83;;;;;;;;;;5055519;28;20054;-63
2022/04/11 10:57:46;;;;;;;13.70;4.28;;;;;;;;;;5055380;28;20148;-63
2022/04/11 11:00:14;;;;;;;15.95;4.50;;;;;;;;;;5054386;28;20049;-63
2022/04/11 11:02:52;;;;;;;10.68;3.33;;;;;;;;;;5055122;28;20048;-63
2022/04/11 11:05:25;;;;;;;10.55;4.05;;;;;;;;;;5054226;28;20049;-63
2022/04/11 11:08:11;;;;;;;10.80;3.90;;;;;;;;;;5054838;28;20081;-64
2022/04/11 11:10:46;;;;;;;8.53;3.17;;;;;;;;;;5050483;28;20092;-63
2022/04/11 11:13:31;;;;;;;9.73;3.67;;;;;;;;;;5055425;28;20371;-65
2022/04/11 11:15:59;;;;;;;12.07;4.07;;;;;;;;;;5056418;28;20132;-62
2022/04/11 11:18:25;;;;;;;12.50;3.75;;;;;;;;;;5054398;28;20061;-63
2022/04/11 11:20:54;;;;;;;;;;;;;;;;;;5053884;28;20436;-62
2022/04/11 11:23:31;;;;;;;10.32;3.65;;;;;;;;;;5054250;28;19966;-61
2022/04/11 11:26:08;;;;;;;12.35;4.40;;;;;;;;;;5054785;28;20060;-63
2022/04/11 11:28:34;;;;;;;12.65;3.80;;;;;;;;;;5053834;28;20048;-63
2022/04/11 11:31:00;;;;;;;13.23;3.97;;;;;;;;;;5054943;28;20052;-62
2022/04/11 11:33:27;;;;;;;11.18;4.35;;;;;;;;;;5054427;28;20087;-62
2022/04/11 11:35:54;;;;;;;13.15;4.40;;;;;;;;;;5054444;28;20063;-62
2022/04/11 11:38:28;;;;;;;12.55;4.80;;;;;;;;;;5053110;28;20053;-62
2022/04/11 11:40:58;;;;;;;12.95;4.10;;;;;;;;;;5036881;28;20045;-63
2022/04/11 11:43:25;;;;;;;14.73;4.13;;;;;;;;;;5054062;28;20171;-62
2022/04/11 11:45:51;;;;;;;10.95;3.83;;;;;;;;;;5054211;28;20075;-62
2022/04/11 11:48:22;;;;;;;11.10;4.32;;;;;;;;;;5052921;28;20056;-63
2022/04/11 11:50:48;;;;;;;12.23;4.53;;;;;;;;;;5052866;28;20049;-63
2022/04/11 11:53:14;;;;;;;16.23;4.57;;;;;;;;;;5054503;28;20069;-64
2022/04/11 11:55:59;;;;;;;31.33;7.18;;;;;;;;;;5054199;28;20397;-62
2022/04/11 11:58:41;;;;;;;11.57;4.70;;;;;;;;;;5054262;28;20070;-64
2022/04/11 12:01:11;;;;;;;13.48;4.93;;;;;;;;;;5053908;28;20050;-63
2022/04/11 12:06:23;;;;;;;13.25;4.32;;;;;;;;;;5053605;28;20132;-63
2022/04/11 12:08:55;;;;;;;16.05;4.63;;;;;;;;;;5036423;28;20175;-63
2022/04/11 12:11:22;;;;;;;14.85;4.65;;;;;;;;;;5054113;28;20061;-62
2022/04/11 12:13:49;;;;;;;12.40;4.28;;;;;;;;;;5053180;28;20049;-64
2022/04/11 12:16:17;;;;;;;13.27;5.18;;;;;;;;;;5052462;28;20041;-62
2022/04/11 12:19:13;;;;;;;12.93;5.13;;;;;;;;;;5054263;28;20045;-62
2022/04/11 12:21:41;;;;;;;13.48;5.03;;;;;;;;;;5043644;28;20055;-63
2022/04/11 12:24:11;;;;;;;14.10;4.88;;;;;;;;;;5052529;28;20401;-63
2022/04/11 12:26:48;;;;;;;13.55;4.68;;;;;;;;;;5053958;28;20053;-63
2022/04/11 12:29:17;;;;;;;13.48;4.60;;;;;;;;;;5052777;28;20075;-62
2022/04/11 12:32:01;;;;;;;14.15;4.95;;;;;;;;;;5053168;28;20483;-64
2022/04/11 12:34:34;;;;;;;12.93;5.10;;;;;;;;;;5053007;28;20496;-61
2022/04/11 12:37:05;;;;;;;11.73;4.88;;;;;;;;;;5053345;28;20041;-63
2022/04/11 12:39:31;;;;;;;10.32;4.60;;;;;;;;;;5035483;28;20428;-63
2022/04/11 12:42:00;;;;;;;10.43;4.60;;;;;;;;;;5051926;28;20497;-62
2022/04/11 12:44:36;;;;;;;12.65;4.85;;;;;;;;;;5051810;28;20084;-62
2022/04/11 12:47:02;;;;;;;12.50;4.80;;;;;;;;;;5053311;28;20520;-62
2022/04/11 12:49:46;;;;;;;10.52;4.07;;;;;;;;;;5051276;28;20394;-61
2022/04/11 12:52:12;;;;;;;12.88;4.63;;;;;;;;;;5053016;28;20136;-61
2022/04/11 12:54:38;;;;;;;;;;;;;;;;;;5052074;28;20044;-61
2022/04/11 12:57:05;;;;;;;11.68;5.13;;;;;;;;;;5053116;28;19927;-62
2022/04/11 12:59:38;;;;;;;10.77;5.18;;;;;;;;;;5052826;28;20075;-62
2022/04/11 13:02:07;;;;;;;13.20;4.57;;;;;;;;;;5053345;28;20118;-62
2022/04/11 13:04:35;;;;;;;47.95;7.00;;;;;;;;;;5051968;28;20389;-62
2022/04/11 13:07:01;;;;;;;37.63;6.20;;;;;;;;;;5052225;28;20490;-63
2022/04/11 13:09:30;;;;;;;11.70;4.53;;;;;;;;;;5019033;28;20079;-61
2022/04/11 13:11:56;;;;;;;12.05;5.07;;;;;;;;;;5052563;28;20052;-62
2022/04/11 13:14:23;;;;;;;11.93;4.50;;;;;;;;;;5052985;28;20461;-61
2022/04/11 13:19:34;;;;;;;13.00;5.05;;;;;;;;;;5053013;28;20045;-61
2022/04/11 13:22:02;;;;;;;13.45;5.05;;;;;;;;;;5051779;28;20057;-61
2022/04/11 13:24:29;;;;;;;13.90;4.53;;;;;;;;;;5052581;28;20060;-62
2022/04/11 13:26:55;;;;;;;14.27;5.32;;;;;;;;;;5052190;28;20470;-62
2022/04/11 13:29:24;;;;;;;13.32;4.80;;;;;;;;;;5050993;28;20084;-62
2022/04/11 13:31:50;;;;;;;12.13;4.68;;;;;;;;;;5052183;28;20052;-62
2022/04/11 13:34:16;;;;;;;11.60;4.80;;;;;;;;;;5053031;28;20071;-62
2022/04/11 13:36:42;;;;;;;13.07;4.82;;;;;;;;;;5052253;28;20044;-62
2022/04/11 13:39:08;;;;;;;11.27;4.60;;;;;;;;;;5051206;28;20052;-62
2022/04/11 13:41:37;;;;;;;13.60;5.20;;;;;;;;;;5050624;28;20374;-61
2022/04/11 13:44:04;;;;;;;13.23;5.25;;;;;;;;;;5050561;28;20049;-62
2022/04/11 13:46:30;;;;;;;12.00;5.43;;;;;;;;;;5050767;28;20136;-61
2022/04/11 13:48:56;;;;;;;13.45;5.55;;;;;;;;;;5051674;28;20470;-62
2022/04/11 13:51:22;;;;;;;;;;;;;;;;;;5052330;28;20049;-61
2022/04/11 13:53:49;;;;;;;12.35;4.82;;;;;;;;;;5051918;28;20023;-61
2022/04/11 13:56:15;;;;;;;13.20;4.78;;;;;;;;;;5050541;28;20049;-62
2022/04/11 13:58:41;;;;;;;12.25;5.25;;;;;;;;;;5051140;28;20101;-63
2022/04/11 14:01:07;;;;;;;12.23;5.30;;;;;;;;;;5051381;28;20485;-62
2022/04/11 14:03:35;;;;;;;12.80;5.40;;;;;;;;;;5052031;28;20080;-62
2022/04/11 14:06:01;;;;;;;12.15;5.40;;;;;;;;;;5051868;28;20048;-61
2022/04/11 14:08:27;;;;;;;11.82;4.93;;;;;;;;;;5051926;28;20099;-61
2022/04/11 14:10:53;;;;;;;10.77;5.10;;;;;;;;;;5050707;28;20045;-61
2022/04/11 14:13:19;;;;;;;11.73;5.38;;;;;;;;;;5051219;28;20254;-60
2022/04/11 14:15:46;;;;;;;9.65;4.85;;;;;;;;;;5050439;28;20064;-61
2022/04/11 14:18:12;;;;;;;11.48;5.28;;;;;;;;;;5050410;28;20067;-61
2022/04/11 14:20:38;;;;;;;14.80;5.60;;;;;;;;;;5051731;28;20488;-61
2022/04/11 14:23:05;;;;;;;15.07;5.13;;;;;;;;;;5050614;28;20049;-61
2022/04/11 14:25:32;;;;;;;13.38;5.85;;;;;;;;;;5052162;28;20479;-60
2022/04/11 14:27:58;;;;;;;;;;;;;;;;;;5051764;28;20401;-61
2022/04/11 14:30:24;;;;;;;12.27;5.03;;;;;;;;;;5051709;28;19921;-61
2022/04/11 14:32:50;;;;;;;13.07;5.78;;;;;;;;;;5051682;28;20095;-61
2022/04/11 14:35:16;;;;;;;;;;;;;;;;;;5034498;28;20052;-61
2022/04/11 14:37:45;;;;;;;12.50;5.38;;;;;;;;;;5033791;28;19924;-60
2022/04/11 14:40:11;;;;;;;12.88;5.90;;;;;;;;;;5051679;28;20056;-61
2022/04/11 14:42:37;;;;;;;13.52;5.13;;;;;;;;;;5051868;28;20048;-62
2022/04/11 14:45:03;;;;;;;11.15;4.93;;;;;;;;;;5051598;28;20080;-60
2022/04/11 14:47:29;;;;;;;;;;;;;;;;;;5051136;28;20055;-61